sensor_id;sensor_type;location;lat;lon;timestamp;P1;durP1;ratioP1;P2;durP2;ratioP2
26690;SDS011;14307;51.718;8.938;2023-08-08T00:00:52;17.42;;;15.52;;
26690;SDS011;14307;51.718;8.938;2023-08-08T00:03:19;16.52;;;14.77;;
26690;SDS011;14307;51.718;8.938;2023-08-08T00:05:45;17.75;;;15.93;;
26690;SDS011;14307;51.718;8.938;2023-08-08T00:08:12;22.63;;;16.10;;
26690;SDS011;14307;51.718;8.938;2023-08-08T00:10:39;17.23;;;14.93;;
26690;SDS011;14307;51.718;8.938;2023-08-08T00:13:06;19.55;;;16.90;;
26690;SDS011;14307;51.718;8.938;2023-08-08T00:15:32;18.63;;;16.67;;
26690;SDS011;14307;51.718;8.938;2023-08-08T00:17:59;19.10;;;16.38;;
26690;SDS011;14307;51.718;8.938;2023-08-08T00:20:26;18.20;;;16.25;;
26690;SDS011;14307;51.718;8.938;2023-08-08T00:22:53;19.33;;;15.75;;
26690;SDS011;14307;51.718;8.938;2023-08-08T00:25:19;18.52;;;16.15;;
26690;SDS011;14307;51.718;8.938;2023-08-08T00:27:47;19.20;;;16.55;;
26690;SDS011;14307;51.718;8.938;2023-08-08T00:30:15;18.02;;;16.10;;
26690;SDS011;14307;51.718;8.938;2023-08-08T00:32:45;17.95;;;15.65;;
26690;SDS011;14307;51.718;8.938;2023-08-08T00:35:11;18.48;;;16.48;;
26690;SDS011;14307;51.718;8.938;2023-08-08T00:37:38;17.40;;;15.60;;
26690;SDS011;14307;51.718;8.938;2023-08-08T00:40:05;19.85;;;17.00;;
26690;SDS011;14307;51.718;8.938;2023-08-08T00:42:32;17.13;;;15.32;;
26690;SDS011;14307;51.718;8.938;2023-08-08T00:44:59;19.27;;;15.13;;
26690;SDS011;14307;51.718;8.938;2023-08-08T00:47:30;16.67;;;14.55;;
26690;SDS011;14307;51.718;8.938;2023-08-08T00:50:00;17.70;;;15.25;;
26690;SDS011;14307;51.718;8.938;2023-08-08T00:52:29;17.10;;;14.15;;
26690;SDS011;14307;51.718;8.938;2023-08-08T00:54:58;16.23;;;14.82;;
26690;SDS011;14307;51.718;8.938;2023-08-08T00:57:26;16.73;;;15.07;;
26690;SDS011;14307;51.718;8.938;2023-08-08T00:59:52;15.35;;;13.85;;
26690;SDS011;14307;51.718;8.938;2023-08-08T01:02:19;15.10;;;13.70;;
26690;SDS011;14307;51.718;8.938;2023-08-08T01:04:46;18.85;;;13.98;;
26690;SDS011;14307;51.718;8.938;2023-08-08T01:10:11;15.40;;;13.82;;
26690;SDS011;14307;51.718;8.938;2023-08-08T01:12:44;15.75;;;14.18;;
26690;SDS011;14307;51.718;8.938;2023-08-08T01:15:14;14.50;;;12.88;;
26690;SDS011;14307;51.718;8.938;2023-08-08T01:17:42;15.13;;;13.90;;
26690;SDS011;14307;51.718;8.938;2023-08-08T01:20:10;14.13;;;13.05;;
26690;SDS011;14307;51.718;8.938;2023-08-08T01:22:58;14.77;;;13.43;;
26690;SDS011;14307;51.718;8.938;2023-08-08T01:25:37;15.20;;;13.70;;
26690;SDS011;14307;51.718;8.938;2023-08-08T01:28:06;14.38;;;13.27;;
26690;SDS011;14307;51.718;8.938;2023-08-08T01:30:33;15.00;;;13.80;;
26690;SDS011;14307;51.718;8.938;2023-08-08T01:33:01;14.63;;;13.40;;
26690;SDS011;14307;51.718;8.938;2023-08-08T01:35:29;14.90;;;13.77;;
26690;SDS011;14307;51.718;8.938;2023-08-08T01:38:17;14.80;;;13.60;;
26690;SDS011;14307;51.718;8.938;2023-08-08T01:40:47;16.35;;;13.77;;
26690;SDS011;14307;51.718;8.938;2023-08-08T01:43:14;14.02;;;12.70;;
26690;SDS011;14307;51.718;8.938;2023-08-08T01:45:42;13.63;;;12.63;;
26690;SDS011;14307;51.718;8.938;2023-08-08T01:48:10;13.20;;;11.90;;
26690;SDS011;14307;51.718;8.938;2023-08-08T01:50:37;11.65;;;10.45;;
26690;SDS011;14307;51.718;8.938;2023-08-08T01:53:04;12.27;;;11.00;;
26690;SDS011;14307;51.718;8.938;2023-08-08T01:55:31;11.43;;;9.55;;
26690;SDS011;14307;51.718;8.938;2023-08-08T01:57:57;10.48;;;9.40;;
26690;SDS011;14307;51.718;8.938;2023-08-08T02:00:25;13.32;;;9.23;;
26690;SDS011;14307;51.718;8.938;2023-08-08T02:02:52;10.82;;;8.85;;
26690;SDS011;14307;51.718;8.938;2023-08-08T02:05:19;8.75;;;7.80;;
26690;SDS011;14307;51.718;8.938;2023-08-08T02:07:46;7.95;;;7.25;;
26690;SDS011;14307;51.718;8.938;2023-08-08T02:10:13;10.82;;;8.07;;
26690;SDS011;14307;51.718;8.938;2023-08-08T02:12:39;9.35;;;7.78;;
26690;SDS011;14307;51.718;8.938;2023-08-08T02:15:06;7.90;;;6.65;;
26690;SDS011;14307;51.718;8.938;2023-08-08T02:17:33;8.80;;;6.78;;
26690;SDS011;14307;51.718;8.938;2023-08-08T02:20:02;7.38;;;6.22;;
26690;SDS011;14307;51.718;8.938;2023-08-08T02:22:29;7.97;;;5.85;;
26690;SDS011;14307;51.718;8.938;2023-08-08T02:24:56;10.07;;;7.10;;
26690;SDS011;14307;51.718;8.938;2023-08-08T02:27:23;13.82;;;7.78;;
26690;SDS011;14307;51.718;8.938;2023-08-08T02:29:49;12.05;;;7.15;;
26690;SDS011;14307;51.718;8.938;2023-08-08T02:32:16;8.32;;;6.57;;
26690;SDS011;14307;51.718;8.938;2023-08-08T02:34:43;9.38;;;7.07;;
26690;SDS011;14307;51.718;8.938;2023-08-08T02:37:11;12.32;;;9.00;;
26690;SDS011;14307;51.718;8.938;2023-08-08T02:39:39;10.18;;;8.20;;
26690;SDS011;14307;51.718;8.938;2023-08-08T02:42:07;12.63;;;8.98;;
26690;SDS011;14307;51.718;8.938;2023-08-08T02:44:33;13.38;;;9.52;;
26690;SDS011;14307;51.718;8.938;2023-08-08T02:47:00;13.77;;;10.13;;
26690;SDS011;14307;51.718;8.938;2023-08-08T02:49:27;11.52;;;8.85;;
26690;SDS011;14307;51.718;8.938;2023-08-08T02:51:55;13.60;;;8.80;;
26690;SDS011;14307;51.718;8.938;2023-08-08T02:54:23;17.88;;;9.63;;
26690;SDS011;14307;51.718;8.938;2023-08-08T02:56:50;12.57;;;8.05;;
26690;SDS011;14307;51.718;8.938;2023-08-08T02:59:17;11.57;;;8.38;;
26690;SDS011;14307;51.718;8.938;2023-08-08T03:01:43;11.48;;;8.55;;
26690;SDS011;14307;51.718;8.938;2023-08-08T03:04:15;13.23;;;8.77;;
26690;SDS011;14307;51.718;8.938;2023-08-08T03:06:43;10.05;;;7.80;;
26690;SDS011;14307;51.718;8.938;2023-08-08T03:09:10;11.57;;;8.38;;
26690;SDS011;14307;51.718;8.938;2023-08-08T03:11:38;9.50;;;7.45;;
26690;SDS011;14307;51.718;8.938;2023-08-08T03:14:09;12.15;;;8.68;;
26690;SDS011;14307;51.718;8.938;2023-08-08T03:16:36;10.57;;;7.07;;
26690;SDS011;14307;51.718;8.938;2023-08-08T03:19:05;13.85;;;8.15;;
26690;SDS011;14307;51.718;8.938;2023-08-08T03:21:33;11.25;;;8.23;;
26690;SDS011;14307;51.718;8.938;2023-08-08T03:24:01;10.15;;;8.43;;
26690;SDS011;14307;51.718;8.938;2023-08-08T03:26:28;10.90;;;8.73;;
26690;SDS011;14307;51.718;8.938;2023-08-08T03:28:55;13.35;;;10.30;;
26690;SDS011;14307;51.718;8.938;2023-08-08T03:31:29;13.52;;;10.75;;
26690;SDS011;14307;51.718;8.938;2023-08-08T03:33:56;13.63;;;10.85;;
26690;SDS011;14307;51.718;8.938;2023-08-08T03:36:23;14.85;;;12.07;;
26690;SDS011;14307;51.718;8.938;2023-08-08T03:38:50;15.13;;;13.15;;
26690;SDS011;14307;51.718;8.938;2023-08-08T03:41:16;19.35;;;14.88;;
26690;SDS011;14307;51.718;8.938;2023-08-08T03:43:43;21.17;;;15.45;;
26690;SDS011;14307;51.718;8.938;2023-08-08T03:46:11;18.80;;;14.82;;
26690;SDS011;14307;51.718;8.938;2023-08-08T03:48:38;16.67;;;14.90;;
26690;SDS011;14307;51.718;8.938;2023-08-08T03:51:05;18.08;;;14.20;;
26690;SDS011;14307;51.718;8.938;2023-08-08T03:53:33;16.10;;;13.82;;
26690;SDS011;14307;51.718;8.938;2023-08-08T03:55:59;17.27;;;13.32;;
26690;SDS011;14307;51.718;8.938;2023-08-08T03:58:26;16.83;;;13.05;;
26690;SDS011;14307;51.718;8.938;2023-08-08T04:00:53;19.90;;;13.68;;
26690;SDS011;14307;51.718;8.938;2023-08-08T04:03:20;18.42;;;13.48;;
26690;SDS011;14307;51.718;8.938;2023-08-08T04:05:47;19.05;;;12.65;;
26690;SDS011;14307;51.718;8.938;2023-08-08T04:08:15;16.58;;;12.80;;
26690;SDS011;14307;51.718;8.938;2023-08-08T04:10:42;20.77;;;12.82;;
26690;SDS011;14307;51.718;8.938;2023-08-08T04:13:09;18.73;;;11.82;;
26690;SDS011;14307;51.718;8.938;2023-08-08T04:15:36;22.40;;;13.45;;
26690;SDS011;14307;51.718;8.938;2023-08-08T04:18:04;15.18;;;10.65;;
26690;SDS011;14307;51.718;8.938;2023-08-08T04:20:33;16.73;;;11.82;;
26690;SDS011;14307;51.718;8.938;2023-08-08T04:23:00;14.63;;;11.50;;
26690;SDS011;14307;51.718;8.938;2023-08-08T04:25:27;15.80;;;11.55;;
26690;SDS011;14307;51.718;8.938;2023-08-08T04:27:54;12.88;;;9.88;;
26690;SDS011;14307;51.718;8.938;2023-08-08T04:30:21;13.60;;;9.80;;
26690;SDS011;14307;51.718;8.938;2023-08-08T04:32:49;15.05;;;9.70;;
26690;SDS011;14307;51.718;8.938;2023-08-08T04:35:16;14.10;;;10.15;;
26690;SDS011;14307;51.718;8.938;2023-08-08T04:37:43;13.15;;;10.07;;
26690;SDS011;14307;51.718;8.938;2023-08-08T04:40:10;15.57;;;9.52;;
26690;SDS011;14307;51.718;8.938;2023-08-08T04:42:37;13.98;;;9.10;;
26690;SDS011;14307;51.718;8.938;2023-08-08T04:45:04;13.35;;;9.65;;
26690;SDS011;14307;51.718;8.938;2023-08-08T04:47:31;15.48;;;9.38;;
26690;SDS011;14307;51.718;8.938;2023-08-08T04:49:58;19.88;;;8.68;;
26690;SDS011;14307;51.718;8.938;2023-08-08T04:52:25;13.13;;;8.35;;
26690;SDS011;14307;51.718;8.938;2023-08-08T04:54:52;14.60;;;8.27;;
26690;SDS011;14307;51.718;8.938;2023-08-08T04:57:19;13.27;;;8.77;;
26690;SDS011;14307;51.718;8.938;2023-08-08T04:59:45;10.65;;;8.43;;
26690;SDS011;14307;51.718;8.938;2023-08-08T05:02:12;12.88;;;9.20;;
26690;SDS011;14307;51.718;8.938;2023-08-08T05:04:39;12.60;;;8.80;;
26690;SDS011;14307;51.718;8.938;2023-08-08T05:07:06;12.13;;;8.20;;
26690;SDS011;14307;51.718;8.938;2023-08-08T05:09:32;11.45;;;9.27;;
26690;SDS011;14307;51.718;8.938;2023-08-08T05:11:59;12.82;;;8.80;;
26690;SDS011;14307;51.718;8.938;2023-08-08T05:14:27;15.98;;;9.75;;
26690;SDS011;14307;51.718;8.938;2023-08-08T05:16:53;14.13;;;8.85;;
26690;SDS011;14307;51.718;8.938;2023-08-08T05:19:20;13.88;;;9.68;;
26690;SDS011;14307;51.718;8.938;2023-08-08T05:21:47;16.50;;;9.77;;
26690;SDS011;14307;51.718;8.938;2023-08-08T05:24:15;12.63;;;9.90;;
26690;SDS011;14307;51.718;8.938;2023-08-08T05:26:42;21.38;;;9.85;;
26690;SDS011;14307;51.718;8.938;2023-08-08T05:29:09;11.25;;;9.57;;
26690;SDS011;14307;51.718;8.938;2023-08-08T05:31:35;14.73;;;10.27;;
26690;SDS011;14307;51.718;8.938;2023-08-08T05:34:02;14.45;;;10.68;;
26690;SDS011;14307;51.718;8.938;2023-08-08T05:36:29;16.63;;;11.30;;
26690;SDS011;14307;51.718;8.938;2023-08-08T05:38:55;15.45;;;10.73;;
26690;SDS011;14307;51.718;8.938;2023-08-08T05:41:22;12.18;;;10.60;;
26690;SDS011;14307;51.718;8.938;2023-08-08T05:43:49;17.40;;;12.25;;
26690;SDS011;14307;51.718;8.938;2023-08-08T05:46:16;17.40;;;11.27;;
26690;SDS011;14307;51.718;8.938;2023-08-08T05:48:43;16.85;;;10.32;;
26690;SDS011;14307;51.718;8.938;2023-08-08T05:51:11;12.85;;;9.27;;
26690;SDS011;14307;51.718;8.938;2023-08-08T05:53:38;15.68;;;11.18;;
26690;SDS011;14307;51.718;8.938;2023-08-08T05:56:05;14.93;;;11.02;;
26690;SDS011;14307;51.718;8.938;2023-08-08T05:58:32;14.48;;;10.25;;
26690;SDS011;14307;51.718;8.938;2023-08-08T06:00:59;17.13;;;12.13;;
26690;SDS011;14307;51.718;8.938;2023-08-08T06:03:25;16.67;;;11.70;;
26690;SDS011;14307;51.718;8.938;2023-08-08T06:05:52;17.88;;;11.27;;
26690;SDS011;14307;51.718;8.938;2023-08-08T06:08:19;15.10;;;11.77;;
26690;SDS011;14307;51.718;8.938;2023-08-08T06:10:46;17.67;;;11.90;;
26690;SDS011;14307;51.718;8.938;2023-08-08T06:13:12;18.15;;;11.52;;
26690;SDS011;14307;51.718;8.938;2023-08-08T06:15:39;13.70;;;11.13;;
26690;SDS011;14307;51.718;8.938;2023-08-08T06:18:06;16.70;;;11.05;;
26690;SDS011;14307;51.718;8.938;2023-08-08T06:20:33;13.60;;;10.65;;
26690;SDS011;14307;51.718;8.938;2023-08-08T06:22:59;17.63;;;11.18;;
26690;SDS011;14307;51.718;8.938;2023-08-08T06:25:26;12.75;;;10.10;;
26690;SDS011;14307;51.718;8.938;2023-08-08T06:27:54;13.32;;;10.15;;
26690;SDS011;14307;51.718;8.938;2023-08-08T06:30:21;14.10;;;10.35;;
26690;SDS011;14307;51.718;8.938;2023-08-08T06:32:48;20.00;;;11.77;;
26690;SDS011;14307;51.718;8.938;2023-08-08T06:35:15;19.55;;;11.73;;
26690;SDS011;14307;51.718;8.938;2023-08-08T06:37:43;13.82;;;11.40;;
26690;SDS011;14307;51.718;8.938;2023-08-08T06:40:10;15.18;;;11.27;;
26690;SDS011;14307;51.718;8.938;2023-08-08T06:42:37;20.50;;;12.35;;
26690;SDS011;14307;51.718;8.938;2023-08-08T06:45:05;19.30;;;13.50;;
26690;SDS011;14307;51.718;8.938;2023-08-08T06:47:33;21.35;;;14.43;;
26690;SDS011;14307;51.718;8.938;2023-08-08T06:49:59;22.63;;;14.30;;
26690;SDS011;14307;51.718;8.938;2023-08-08T06:52:26;23.30;;;16.38;;
26690;SDS011;14307;51.718;8.938;2023-08-08T06:54:53;25.63;;;16.45;;
26690;SDS011;14307;51.718;8.938;2023-08-08T06:57:20;21.58;;;15.30;;
26690;SDS011;14307;51.718;8.938;2023-08-08T06:59:46;25.25;;;15.85;;
26690;SDS011;14307;51.718;8.938;2023-08-08T07:02:17;23.90;;;15.07;;
26690;SDS011;14307;51.718;8.938;2023-08-08T07:04:45;27.13;;;16.38;;
26690;SDS011;14307;51.718;8.938;2023-08-08T07:07:12;24.10;;;16.75;;
26690;SDS011;14307;51.718;8.938;2023-08-08T07:09:38;23.75;;;16.55;;
26690;SDS011;14307;51.718;8.938;2023-08-08T07:12:05;28.58;;;18.10;;
26690;SDS011;14307;51.718;8.938;2023-08-08T07:14:32;20.35;;;17.08;;
26690;SDS011;14307;51.718;8.938;2023-08-08T07:16:59;22.83;;;17.65;;
26690;SDS011;14307;51.718;8.938;2023-08-08T07:19:26;26.48;;;19.65;;
26690;SDS011;14307;51.718;8.938;2023-08-08T07:21:52;24.65;;;18.55;;
26690;SDS011;14307;51.718;8.938;2023-08-08T07:24:20;26.80;;;19.13;;
26690;SDS011;14307;51.718;8.938;2023-08-08T07:26:46;22.70;;;17.38;;
26690;SDS011;14307;51.718;8.938;2023-08-08T07:29:14;26.75;;;19.92;;
26690;SDS011;14307;51.718;8.938;2023-08-08T07:31:41;28.30;;;20.95;;
26690;SDS011;14307;51.718;8.938;2023-08-08T07:34:08;33.28;;;21.45;;
26690;SDS011;14307;51.718;8.938;2023-08-08T07:36:34;25.45;;;19.08;;
26690;SDS011;14307;51.718;8.938;2023-08-08T07:39:01;22.33;;;19.63;;
26690;SDS011;14307;51.718;8.938;2023-08-08T07:41:29;34.03;;;23.80;;
26690;SDS011;14307;51.718;8.938;2023-08-08T07:43:56;31.52;;;20.10;;
26690;SDS011;14307;51.718;8.938;2023-08-08T07:46:23;25.75;;;19.52;;
26690;SDS011;14307;51.718;8.938;2023-08-08T07:48:50;27.92;;;21.95;;
26690;SDS011;14307;51.718;8.938;2023-08-08T07:51:16;25.75;;;20.75;;
26690;SDS011;14307;51.718;8.938;2023-08-08T07:53:43;26.98;;;21.25;;
26690;SDS011;14307;51.718;8.938;2023-08-08T07:56:12;28.98;;;22.85;;
26690;SDS011;14307;51.718;8.938;2023-08-08T07:58:39;33.10;;;23.38;;
26690;SDS011;14307;51.718;8.938;2023-08-08T08:01:06;27.40;;;23.02;;
26690;SDS011;14307;51.718;8.938;2023-08-08T08:03:33;26.65;;;23.33;;
26690;SDS011;14307;51.718;8.938;2023-08-08T08:06:00;26.10;;;22.42;;
26690;SDS011;14307;51.718;8.938;2023-08-08T08:08:27;28.65;;;24.90;;
26690;SDS011;14307;51.718;8.938;2023-08-08T08:10:53;30.63;;;24.83;;
26690;SDS011;14307;51.718;8.938;2023-08-08T08:13:20;28.15;;;25.35;;
26690;SDS011;14307;51.718;8.938;2023-08-08T08:15:47;28.30;;;24.10;;
26690;SDS011;14307;51.718;8.938;2023-08-08T08:18:14;28.65;;;23.23;;
26690;SDS011;14307;51.718;8.938;2023-08-08T08:20:44;29.35;;;26.00;;
26690;SDS011;14307;51.718;8.938;2023-08-08T08:23:11;26.60;;;23.83;;
26690;SDS011;14307;51.718;8.938;2023-08-08T08:25:38;31.92;;;25.58;;
26690;SDS011;14307;51.718;8.938;2023-08-08T08:28:05;31.42;;;24.58;;
26690;SDS011;14307;51.718;8.938;2023-08-08T08:30:32;28.48;;;25.65;;
26690;SDS011;14307;51.718;8.938;2023-08-08T08:32:59;29.95;;;26.92;;
26690;SDS011;14307;51.718;8.938;2023-08-08T08:35:26;29.63;;;26.50;;
26690;SDS011;14307;51.718;8.938;2023-08-08T08:37:53;26.92;;;23.92;;
26690;SDS011;14307;51.718;8.938;2023-08-08T08:40:20;29.17;;;26.27;;
26690;SDS011;14307;51.718;8.938;2023-08-08T08:42:47;27.85;;;25.10;;
26690;SDS011;14307;51.718;8.938;2023-08-08T08:45:14;32.45;;;25.88;;
26690;SDS011;14307;51.718;8.938;2023-08-08T08:47:45;28.13;;;25.58;;
26690;SDS011;14307;51.718;8.938;2023-08-08T08:50:14;25.23;;;22.73;;
26690;SDS011;14307;51.718;8.938;2023-08-08T08:52:42;27.67;;;24.73;;
26690;SDS011;14307;51.718;8.938;2023-08-08T08:55:09;27.63;;;25.15;;
26690;SDS011;14307;51.718;8.938;2023-08-08T08:57:39;27.95;;;25.17;;
26690;SDS011;14307;51.718;8.938;2023-08-08T09:00:06;26.08;;;23.88;;
26690;SDS011;14307;51.718;8.938;2023-08-08T09:02:34;26.50;;;23.42;;
26690;SDS011;14307;51.718;8.938;2023-08-08T09:05:01;26.30;;;23.48;;
26690;SDS011;14307;51.718;8.938;2023-08-08T09:07:29;27.38;;;24.73;;
26690;SDS011;14307;51.718;8.938;2023-08-08T09:09:59;26.67;;;24.08;;
26690;SDS011;14307;51.718;8.938;2023-08-08T09:12:26;27.33;;;24.90;;
26690;SDS011;14307;51.718;8.938;2023-08-08T09:14:56;26.45;;;24.30;;
26690;SDS011;14307;51.718;8.938;2023-08-08T09:17:27;27.52;;;24.67;;
26690;SDS011;14307;51.718;8.938;2023-08-08T09:20:13;27.55;;;24.85;;
26690;SDS011;14307;51.718;8.938;2023-08-08T09:22:40;27.05;;;24.73;;
26690;SDS011;14307;51.718;8.938;2023-08-08T09:25:07;27.70;;;25.30;;
26690;SDS011;14307;51.718;8.938;2023-08-08T09:27:35;26.88;;;24.75;;
26690;SDS011;14307;51.718;8.938;2023-08-08T09:30:02;25.38;;;23.15;;
26690;SDS011;14307;51.718;8.938;2023-08-08T09:32:30;26.75;;;24.77;;
26690;SDS011;14307;51.718;8.938;2023-08-08T09:34:58;25.52;;;23.50;;
26690;SDS011;14307;51.718;8.938;2023-08-08T09:37:26;26.08;;;23.88;;
26690;SDS011;14307;51.718;8.938;2023-08-08T09:39:58;26.63;;;24.48;;
26690;SDS011;14307;51.718;8.938;2023-08-08T09:42:26;25.63;;;23.52;;
26690;SDS011;14307;51.718;8.938;2023-08-08T09:44:53;25.35;;;23.30;;
26690;SDS011;14307;51.718;8.938;2023-08-08T09:47:22;27.00;;;24.95;;
26690;SDS011;14307;51.718;8.938;2023-08-08T09:49:50;23.05;;;21.33;;
26690;SDS011;14307;51.718;8.938;2023-08-08T09:52:17;28.38;;;22.88;;
26690;SDS011;14307;51.718;8.938;2023-08-08T09:54:45;24.23;;;20.85;;
26690;SDS011;14307;51.718;8.938;2023-08-08T09:57:14;22.95;;;21.30;;
26690;SDS011;14307;51.718;8.938;2023-08-08T09:59:42;22.45;;;20.77;;
26690;SDS011;14307;51.718;8.938;2023-08-08T10:02:09;23.00;;;21.40;;
26690;SDS011;14307;51.718;8.938;2023-08-08T10:04:46;24.10;;;22.45;;
26690;SDS011;14307;51.718;8.938;2023-08-08T10:07:13;24.90;;;22.92;;
26690;SDS011;14307;51.718;8.938;2023-08-08T10:09:41;25.90;;;23.77;;
26690;SDS011;14307;51.718;8.938;2023-08-08T10:12:08;25.88;;;23.58;;
26690;SDS011;14307;51.718;8.938;2023-08-08T10:14:37;24.63;;;23.00;;
26690;SDS011;14307;51.718;8.938;2023-08-08T10:17:08;28.50;;;26.08;;
26690;SDS011;14307;51.718;8.938;2023-08-08T10:19:38;27.10;;;24.92;;
26690;SDS011;14307;51.718;8.938;2023-08-08T10:22:05;26.02;;;24.20;;
26690;SDS011;14307;51.718;8.938;2023-08-08T10:24:36;27.30;;;25.63;;
26690;SDS011;14307;51.718;8.938;2023-08-08T10:27:04;23.77;;;21.92;;
26690;SDS011;14307;51.718;8.938;2023-08-08T10:29:32;24.92;;;23.00;;
26690;SDS011;14307;51.718;8.938;2023-08-08T10:32:01;24.20;;;22.20;;
26690;SDS011;14307;51.718;8.938;2023-08-08T10:34:42;24.85;;;23.02;;
26690;SDS011;14307;51.718;8.938;2023-08-08T10:37:10;25.35;;;23.65;;
26690;SDS011;14307;51.718;8.938;2023-08-08T10:39:48;27.10;;;24.98;;
26690;SDS011;14307;51.718;8.938;2023-08-08T10:42:24;25.90;;;23.88;;
26690;SDS011;14307;51.718;8.938;2023-08-08T10:44:55;25.60;;;23.83;;
26690;SDS011;14307;51.718;8.938;2023-08-08T10:47:23;27.58;;;25.10;;
26690;SDS011;14307;51.718;8.938;2023-08-08T10:50:04;25.30;;;23.45;;
26690;SDS011;14307;51.718;8.938;2023-08-08T10:52:54;28.10;;;25.45;;
26690;SDS011;14307;51.718;8.938;2023-08-08T10:55:22;26.85;;;25.05;;
26690;SDS011;14307;51.718;8.938;2023-08-08T10:57:54;28.30;;;26.40;;
26690;SDS011;14307;51.718;8.938;2023-08-08T11:00:23;24.13;;;22.38;;
26690;SDS011;14307;51.718;8.938;2023-08-08T11:02:52;29.33;;;27.48;;
26690;SDS011;14307;51.718;8.938;2023-08-08T11:05:20;27.98;;;26.10;;
26690;SDS011;14307;51.718;8.938;2023-08-08T11:07:48;28.27;;;26.50;;
26690;SDS011;14307;51.718;8.938;2023-08-08T11:10:16;26.27;;;24.15;;
26690;SDS011;14307;51.718;8.938;2023-08-08T11:12:57;26.40;;;24.40;;
26690;SDS011;14307;51.718;8.938;2023-08-08T11:15:24;27.45;;;25.30;;
26690;SDS011;14307;51.718;8.938;2023-08-08T11:17:54;28.75;;;26.33;;
26690;SDS011;14307;51.718;8.938;2023-08-08T11:20:23;27.52;;;25.40;;
26690;SDS011;14307;51.718;8.938;2023-08-08T11:22:54;30.20;;;28.10;;
26690;SDS011;14307;51.718;8.938;2023-08-08T11:25:22;27.75;;;25.55;;
26690;SDS011;14307;51.718;8.938;2023-08-08T11:27:52;28.77;;;26.52;;
26690;SDS011;14307;51.718;8.938;2023-08-08T11:30:20;27.60;;;25.38;;
26690;SDS011;14307;51.718;8.938;2023-08-08T11:32:49;28.35;;;26.25;;
26690;SDS011;14307;51.718;8.938;2023-08-08T11:35:22;30.52;;;28.33;;
26690;SDS011;14307;51.718;8.938;2023-08-08T11:37:51;29.58;;;26.92;;
26690;SDS011;14307;51.718;8.938;2023-08-08T11:40:19;27.98;;;26.02;;
26690;SDS011;14307;51.718;8.938;2023-08-08T11:42:46;28.20;;;25.92;;
26690;SDS011;14307;51.718;8.938;2023-08-08T11:45:13;29.23;;;27.20;;
26690;SDS011;14307;51.718;8.938;2023-08-08T11:47:40;28.27;;;26.23;;
26690;SDS011;14307;51.718;8.938;2023-08-08T11:50:09;28.50;;;26.52;;
26690;SDS011;14307;51.718;8.938;2023-08-08T11:52:44;28.88;;;26.30;;
26690;SDS011;14307;51.718;8.938;2023-08-08T11:55:12;28.20;;;26.10;;
26690;SDS011;14307;51.718;8.938;2023-08-08T11:57:40;27.58;;;25.50;;
26690;SDS011;14307;51.718;8.938;2023-08-08T12:00:07;26.42;;;24.63;;
26690;SDS011;14307;51.718;8.938;2023-08-08T12:02:39;27.95;;;26.15;;
26690;SDS011;14307;51.718;8.938;2023-08-08T12:05:11;27.63;;;25.40;;
26690;SDS011;14307;51.718;8.938;2023-08-08T12:07:42;28.60;;;26.65;;
26690;SDS011;14307;51.718;8.938;2023-08-08T12:10:23;25.92;;;24.17;;
26690;SDS011;14307;51.718;8.938;2023-08-08T12:12:54;27.58;;;25.77;;
26690;SDS011;14307;51.718;8.938;2023-08-08T12:15:33;27.45;;;25.83;;
26690;SDS011;14307;51.718;8.938;2023-08-08T12:18:02;27.02;;;25.23;;
26690;SDS011;14307;51.718;8.938;2023-08-08T12:20:30;27.55;;;25.48;;
26690;SDS011;14307;51.718;8.938;2023-08-08T12:22:58;27.52;;;25.75;;
26690;SDS011;14307;51.718;8.938;2023-08-08T12:25:25;28.60;;;26.70;;
26690;SDS011;14307;51.718;8.938;2023-08-08T12:27:52;27.13;;;25.33;;
26690;SDS011;14307;51.718;8.938;2023-08-08T12:30:19;28.92;;;26.83;;
26690;SDS011;14307;51.718;8.938;2023-08-08T12:32:46;27.15;;;25.23;;
26690;SDS011;14307;51.718;8.938;2023-08-08T12:35:13;27.02;;;25.15;;
26690;SDS011;14307;51.718;8.938;2023-08-08T12:37:42;27.83;;;25.45;;
26690;SDS011;14307;51.718;8.938;2023-08-08T12:40:09;26.55;;;24.95;;
26690;SDS011;14307;51.718;8.938;2023-08-08T12:42:36;27.58;;;25.23;;
26690;SDS011;14307;51.718;8.938;2023-08-08T12:45:03;26.48;;;24.67;;
26690;SDS011;14307;51.718;8.938;2023-08-08T12:47:30;26.20;;;24.20;;
26690;SDS011;14307;51.718;8.938;2023-08-08T12:49:57;26.45;;;24.75;;
26690;SDS011;14307;51.718;8.938;2023-08-08T12:52:24;26.88;;;24.90;;
26690;SDS011;14307;51.718;8.938;2023-08-08T12:54:51;26.70;;;24.13;;
26690;SDS011;14307;51.718;8.938;2023-08-08T12:57:18;26.45;;;24.45;;
26690;SDS011;14307;51.718;8.938;2023-08-08T12:59:45;26.48;;;24.73;;
26690;SDS011;14307;51.718;8.938;2023-08-08T13:02:12;26.02;;;24.20;;
26690;SDS011;14307;51.718;8.938;2023-08-08T13:04:38;25.77;;;24.20;;
26690;SDS011;14307;51.718;8.938;2023-08-08T13:07:05;26.48;;;24.73;;
26690;SDS011;14307;51.718;8.938;2023-08-08T13:09:33;26.73;;;24.85;;
26690;SDS011;14307;51.718;8.938;2023-08-08T13:12:00;26.13;;;24.30;;
26690;SDS011;14307;51.718;8.938;2023-08-08T13:14:27;28.15;;;26.02;;
26690;SDS011;14307;51.718;8.938;2023-08-08T13:16:54;26.33;;;24.38;;
26690;SDS011;14307;51.718;8.938;2023-08-08T13:19:20;27.50;;;25.40;;
26690;SDS011;14307;51.718;8.938;2023-08-08T13:21:51;27.25;;;25.20;;
26690;SDS011;14307;51.718;8.938;2023-08-08T13:24:18;26.60;;;24.30;;
26690;SDS011;14307;51.718;8.938;2023-08-08T13:26:50;25.20;;;23.60;;
26690;SDS011;14307;51.718;8.938;2023-08-08T13:29:16;25.33;;;23.80;;
26690;SDS011;14307;51.718;8.938;2023-08-08T13:31:43;25.48;;;23.77;;
26690;SDS011;14307;51.718;8.938;2023-08-08T13:34:10;26.10;;;24.17;;
26690;SDS011;14307;51.718;8.938;2023-08-08T13:36:37;27.65;;;25.55;;
26690;SDS011;14307;51.718;8.938;2023-08-08T13:39:04;24.40;;;22.90;;
26690;SDS011;14307;51.718;8.938;2023-08-08T13:41:31;27.52;;;25.60;;
26690;SDS011;14307;51.718;8.938;2023-08-08T13:43:58;26.83;;;24.85;;
26690;SDS011;14307;51.718;8.938;2023-08-08T13:46:24;26.83;;;24.92;;
26690;SDS011;14307;51.718;8.938;2023-08-08T13:48:52;26.52;;;24.73;;
26690;SDS011;14307;51.718;8.938;2023-08-08T13:51:19;27.75;;;25.75;;
26690;SDS011;14307;51.718;8.938;2023-08-08T13:53:46;26.33;;;24.63;;
26690;SDS011;14307;51.718;8.938;2023-08-08T13:56:15;26.25;;;24.33;;
26690;SDS011;14307;51.718;8.938;2023-08-08T13:58:42;26.83;;;24.92;;
26690;SDS011;14307;51.718;8.938;2023-08-08T14:01:09;25.00;;;23.50;;
26690;SDS011;14307;51.718;8.938;2023-08-08T14:03:36;27.25;;;25.27;;
26690;SDS011;14307;51.718;8.938;2023-08-08T14:06:03;24.48;;;22.85;;
26690;SDS011;14307;51.718;8.938;2023-08-08T14:08:30;25.20;;;23.35;;
26690;SDS011;14307;51.718;8.938;2023-08-08T14:10:57;26.20;;;24.30;;
26690;SDS011;14307;51.718;8.938;2023-08-08T14:13:23;25.15;;;22.98;;
26690;SDS011;14307;51.718;8.938;2023-08-08T14:15:50;26.85;;;24.33;;
26690;SDS011;14307;51.718;8.938;2023-08-08T14:18:18;25.48;;;23.77;;
26690;SDS011;14307;51.718;8.938;2023-08-08T14:20:45;26.10;;;24.40;;
26690;SDS011;14307;51.718;8.938;2023-08-08T14:23:12;26.95;;;25.08;;
26690;SDS011;14307;51.718;8.938;2023-08-08T14:25:38;25.73;;;23.75;;
26690;SDS011;14307;51.718;8.938;2023-08-08T14:28:05;25.60;;;23.70;;
26690;SDS011;14307;51.718;8.938;2023-08-08T14:30:32;26.77;;;24.98;;